createdAt,value
2024-01-31T00:00:10.066Z,7.21
2024-01-31T00:01:01.623Z,7.21
2024-01-31T00:01:53.461Z,7.24
2024-01-31T00:02:44.934Z,7.25
2024-01-31T00:03:36.353Z,7.22
2024-01-31T00:04:27.936Z,7.20
2024-01-31T00:05:19.717Z,7.18
2024-01-31T00:06:12.337Z,7.23
2024-01-31T00:07:04.054Z,7.20
2024-01-31T00:07:55.802Z,7.22
2024-01-31T00:08:47.196Z,7.21
2024-01-31T00:09:38.641Z,7.21
2024-01-31T00:10:30.188Z,7.22
2024-01-31T00:11:21.624Z,7.17
2024-01-31T00:12:13.051Z,7.14
2024-01-31T00:13:04.739Z,7.15
2024-01-31T00:13:57.116Z,7.16
2024-01-31T00:14:48.512Z,7.10
2024-01-31T00:15:40.118Z,7.12
2024-01-31T00:16:31.594Z,7.15
2024-01-31T00:17:23.059Z,7.16
2024-01-31T00:18:14.576Z,7.18
2024-01-31T00:19:07.438Z,7.17
2024-01-31T00:19:58.977Z,7.12
2024-01-31T00:20:50.440Z,7.16
2024-01-31T00:21:43.093Z,7.12
2024-01-31T00:22:34.672Z,7.12
2024-01-31T00:23:26.329Z,7.19
2024-01-31T00:24:17.772Z,7.13
2024-01-31T00:25:09.379Z,7.14
2024-01-31T00:26:00.880Z,7.14
2024-01-31T00:26:52.323Z,7.12
2024-01-31T00:27:43.766Z,7.08
2024-01-31T00:28:35.358Z,7.09
2024-01-31T00:29:26.899Z,7.07
2024-01-31T00:30:18.348Z,7.12
2024-01-31T00:31:12.576Z,7.13
2024-01-31T00:32:04.590Z,7.14
2024-01-31T00:32:56.099Z,7.16
2024-01-31T00:33:47.857Z,7.13
2024-01-31T00:34:39.400Z,7.20
2024-01-31T00:35:31.103Z,7.15
2024-01-31T00:36:22.612Z,7.16
2024-01-31T00:37:14.095Z,7.16
2024-01-31T00:38:05.496Z,7.12
2024-01-31T00:38:57.038Z,7.08
2024-01-31T00:39:48.560Z,7.08
2024-01-31T00:40:40.008Z,7.11
2024-01-31T00:41:32.331Z,7.11
2024-01-31T00:42:23.713Z,7.14
2024-01-31T00:43:15.234Z,7.10
2024-01-31T00:44:06.754Z,7.10
2024-01-31T00:44:58.146Z,7.10
2024-01-31T00:45:49.865Z,7.09
2024-01-31T00:46:42.770Z,7.09
2024-01-31T00:47:34.492Z,7.11
2024-01-31T00:48:26.078Z,7.10
2024-01-31T00:49:20.641Z,7.10
2024-01-31T00:50:14.345Z,7.11
2024-01-31T00:51:11.665Z,7.16
2024-01-31T00:52:03.245Z,7.09
2024-01-31T00:52:54.936Z,7.12
2024-01-31T00:53:46.437Z,7.15
2024-01-31T00:54:37.819Z,7.17
2024-01-31T00:55:29.268Z,7.14
2024-01-31T00:56:20.666Z,7.17
2024-01-31T00:57:12.048Z,7.16
2024-01-31T00:58:03.601Z,7.07
2024-01-31T00:58:55.044Z,7.08
2024-01-31T00:59:46.486Z,7.07
2024-01-31T01:00:38.026Z,7.07
2024-01-31T01:01:29.588Z,7.02
2024-01-31T01:02:21.063Z,7.09
2024-01-31T01:03:12.658Z,7.04
2024-01-31T01:04:04.440Z,7.04
2024-01-31T01:04:56.188Z,6.94
2024-01-31T01:05:47.626Z,6.97
2024-01-31T01:06:42.776Z,6.94
2024-01-31T01:07:34.414Z,6.94
2024-01-31T01:08:26.021Z,6.96
2024-01-31T01:09:17.418Z,6.97
2024-01-31T01:10:16.894Z,6.98
2024-01-31T01:11:08.386Z,6.98
2024-01-31T01:11:59.816Z,6.94
2024-01-31T01:12:51.224Z,6.95
2024-01-31T01:13:42.806Z,6.96
2024-01-31T01:14:34.221Z,6.95
2024-01-31T01:15:25.903Z,6.88
2024-01-31T01:16:17.417Z,6.89
2024-01-31T01:17:08.881Z,6.89
2024-01-31T01:18:00.422Z,6.93
2024-01-31T01:18:52.220Z,6.94
2024-01-31T01:19:43.696Z,6.93
2024-01-31T01:20:35.232Z,6.94
2024-01-31T01:21:26.692Z,6.90
2024-01-31T01:22:18.098Z,6.91
2024-01-31T01:23:09.497Z,6.92
2024-01-31T01:24:00.930Z,6.87
2024-01-31T01:24:53.671Z,6.87
2024-01-31T01:25:45.402Z,6.87
2024-01-31T01:26:40.481Z,6.88
2024-01-31T01:27:31.871Z,6.86
2024-01-31T01:28:23.553Z,6.86
2024-01-31T01:29:15.002Z,6.88
2024-01-31T01:30:07.109Z,6.92
2024-01-31T01:30:58.616Z,6.91
2024-01-31T01:31:50.159Z,6.87
2024-01-31T01:32:41.724Z,6.91
2024-01-31T01:33:33.231Z,6.87
2024-01-31T01:34:24.854Z,6.82
2024-01-31T01:35:16.768Z,6.86
2024-01-31T01:36:08.239Z,6.83
2024-01-31T01:36:59.753Z,6.89
2024-01-31T01:37:51.235Z,6.89
2024-01-31T01:38:42.634Z,6.92
2024-01-31T01:39:35.570Z,6.93
2024-01-31T01:40:26.994Z,6.98
2024-01-31T01:41:18.558Z,6.90
2024-01-31T01:42:09.982Z,6.93
2024-01-31T01:43:01.430Z,6.88
2024-01-31T01:43:52.898Z,6.80
2024-01-31T01:44:47.988Z,6.83
2024-01-31T01:45:39.379Z,6.82
2024-01-31T01:46:36.768Z,6.89
2024-01-31T01:47:28.575Z,6.92
2024-01-31T01:48:20.422Z,6.92
2024-01-31T01:49:15.848Z,6.87
2024-01-31T01:50:09.634Z,6.86
2024-01-31T01:51:01.729Z,6.87
2024-01-31T01:51:54.476Z,6.85
2024-01-31T01:52:46.641Z,6.87
2024-01-31T01:53:38.665Z,6.84
2024-01-31T01:54:32.097Z,6.86
2024-01-31T01:55:23.744Z,6.86
2024-01-31T01:56:15.743Z,6.89
2024-01-31T01:57:09.441Z,6.86
2024-01-31T01:58:01.505Z,6.85
2024-01-31T01:58:54.764Z,6.84
2024-01-31T01:59:46.724Z,6.85
2024-01-31T02:00:39.850Z,6.88
2024-01-31T02:01:31.691Z,6.85
2024-01-31T02:02:23.230Z,6.85
2024-01-31T02:03:18.345Z,6.83
2024-01-31T02:04:10.213Z,6.79
2024-01-31T02:05:02.946Z,6.83
2024-01-31T02:05:57.001Z,6.85
2024-01-31T02:06:49.723Z,6.83
2024-01-31T02:07:41.537Z,6.86
2024-01-31T02:08:33.262Z,6.86
2024-01-31T02:09:24.987Z,6.87
2024-01-31T02:10:16.624Z,6.87
2024-01-31T02:11:08.230Z,6.88
2024-01-31T02:11:59.929Z,6.85
2024-01-31T02:12:51.473Z,6.88
2024-01-31T02:13:42.981Z,6.87
2024-01-31T02:14:34.382Z,6.88
2024-01-31T02:15:25.824Z,6.86
2024-01-31T02:16:17.352Z,6.80
2024-01-31T02:17:08.763Z,6.81
2024-01-31T02:18:00.222Z,6.79
2024-01-31T02:18:51.724Z,6.78
2024-01-31T02:19:43.334Z,6.80
2024-01-31T02:20:36.164Z,6.79
2024-01-31T02:21:29.351Z,6.75
2024-01-31T02:22:21.073Z,6.72
2024-01-31T02:23:12.669Z,6.71
2024-01-31T02:24:04.115Z,6.73
2024-01-31T02:24:55.505Z,6.70
2024-01-31T02:25:47.537Z,6.72
2024-01-31T02:26:39.250Z,6.73
2024-01-31T02:27:30.744Z,6.77
2024-01-31T02:28:22.193Z,6.75
2024-01-31T02:29:13.616Z,6.70
2024-01-31T02:30:06.514Z,6.66
2024-01-31T02:30:58.041Z,6.66
2024-01-31T02:31:49.581Z,6.72
2024-01-31T02:32:41.053Z,6.72
2024-01-31T02:33:32.568Z,6.70
2024-01-31T02:34:24.071Z,6.72
2024-01-31T02:35:15.844Z,6.65
2024-01-31T02:36:07.430Z,6.62
2024-01-31T02:36:59.097Z,6.64
2024-01-31T02:37:50.513Z,6.63
2024-01-31T02:38:41.969Z,6.62
2024-01-31T02:39:34.433Z,6.62
2024-01-31T02:40:25.935Z,6.58
2024-01-31T02:41:17.383Z,6.55
2024-01-31T02:42:08.896Z,6.58
2024-01-31T02:43:00.954Z,6.64
2024-01-31T02:43:52.566Z,6.65
2024-01-31T02:44:44.005Z,6.66
2024-01-31T02:45:37.017Z,6.70
2024-01-31T02:46:28.493Z,6.66
2024-01-31T02:47:19.917Z,6.67
2024-01-31T02:48:11.415Z,6.70
2024-01-31T02:49:03.530Z,6.72
2024-01-31T02:49:55.134Z,6.68
2024-01-31T02:50:46.642Z,6.67
2024-01-31T02:51:38.028Z,6.71
2024-01-31T02:52:29.694Z,6.73
2024-01-31T02:53:21.220Z,6.71
2024-01-31T02:54:12.692Z,6.74
2024-01-31T02:55:05.150Z,6.67
2024-01-31T02:55:56.567Z,6.73
2024-01-31T02:56:48.093Z,6.74
2024-01-31T02:57:41.589Z,6.74
2024-01-31T02:58:33.439Z,6.72
2024-01-31T02:59:24.950Z,6.71
2024-01-31T03:00:16.702Z,6.68
2024-01-31T03:01:08.668Z,6.68
2024-01-31T03:02:00.265Z,6.70
2024-01-31T03:02:51.854Z,6.73
2024-01-31T03:03:43.292Z,6.74
2024-01-31T03:04:34.828Z,6.74
2024-01-31T03:05:26.368Z,6.75
2024-01-31T03:06:17.844Z,6.70
2024-01-31T03:07:09.446Z,6.70
2024-01-31T03:08:00.919Z,6.72
2024-01-31T03:08:52.320Z,6.72
2024-01-31T03:09:43.759Z,6.70
2024-01-31T03:10:35.179Z,6.69
2024-01-31T03:11:26.770Z,6.70
2024-01-31T03:12:18.221Z,6.67
2024-01-31T03:13:09.663Z,6.65
2024-01-31T03:14:01.157Z,6.64
2024-01-31T03:14:52.731Z,6.65
2024-01-31T03:15:44.179Z,6.66
2024-01-31T03:16:40.663Z,6.62
2024-01-31T03:17:36.745Z,6.66
2024-01-31T03:18:28.324Z,6.70
2024-01-31T03:19:19.802Z,6.68
2024-01-31T03:20:12.185Z,6.74
2024-01-31T03:21:03.888Z,6.75
2024-01-31T03:21:56.405Z,6.79
2024-01-31T03:22:47.869Z,6.80
2024-01-31T03:23:39.262Z,6.79
2024-01-31T03:24:30.778Z,6.77
2024-01-31T03:25:22.218Z,6.81
2024-01-31T03:26:13.676Z,6.80
2024-01-31T03:27:05.706Z,6.77
2024-01-31T03:27:57.152Z,6.75
2024-01-31T03:28:48.600Z,6.70
2024-01-31T03:29:40.052Z,6.68
2024-01-31T03:30:31.477Z,6.67
2024-01-31T03:31:22.996Z,6.71
2024-01-31T03:32:14.533Z,6.68
2024-01-31T03:33:06.072Z,6.72
2024-01-31T03:33:57.620Z,6.71
2024-01-31T03:34:49.188Z,6.72
2024-01-31T03:35:40.634Z,6.67
2024-01-31T03:36:33.677Z,6.65
2024-01-31T03:37:25.327Z,6.65
2024-01-31T03:38:16.791Z,6.65
2024-01-31T03:39:08.189Z,6.60
2024-01-31T03:39:59.843Z,6.55
2024-01-31T03:40:51.510Z,6.54
2024-01-31T03:41:46.824Z,6.55
2024-01-31T03:42:38.361Z,6.57
2024-01-31T03:43:29.781Z,6.63
2024-01-31T03:44:21.273Z,6.65
2024-01-31T03:45:12.674Z,6.63
2024-01-31T03:46:07.914Z,6.61
2024-01-31T03:46:59.397Z,6.58
2024-01-31T03:47:52.425Z,6.60
2024-01-31T03:48:43.839Z,6.60
2024-01-31T03:49:35.220Z,6.60
2024-01-31T03:50:28.352Z,6.57
2024-01-31T03:51:21.538Z,6.56
2024-01-31T03:52:13.224Z,6.57
2024-01-31T03:53:04.835Z,6.55
2024-01-31T03:53:56.226Z,6.57
2024-01-31T03:54:47.623Z,6.57
2024-01-31T03:55:39.130Z,6.55
2024-01-31T03:56:30.589Z,6.55
2024-01-31T03:57:22.013Z,6.59
2024-01-31T03:58:13.430Z,6.59
2024-01-31T03:59:04.905Z,6.60
2024-01-31T03:59:56.438Z,6.64
2024-01-31T04:00:48.164Z,6.58
2024-01-31T04:01:39.767Z,6.56
2024-01-31T04:02:31.342Z,6.60
2024-01-31T04:03:22.794Z,6.62
2024-01-31T04:04:14.290Z,6.59
2024-01-31T04:05:06.243Z,6.60
2024-01-31T04:05:58.276Z,6.61
2024-01-31T04:06:49.862Z,6.64
2024-01-31T04:07:46.371Z,6.65
2024-01-31T04:08:39.103Z,6.64
2024-01-31T04:09:30.558Z,6.64
2024-01-31T04:10:22.006Z,6.62
2024-01-31T04:11:13.528Z,6.61
2024-01-31T04:12:05.218Z,6.63
2024-01-31T04:12:56.664Z,6.64
2024-01-31T04:13:48.166Z,6.62
2024-01-31T04:14:39.803Z,6.66
2024-01-31T04:15:31.310Z,6.58
2024-01-31T04:16:22.799Z,6.63
2024-01-31T04:17:14.176Z,6.63
2024-01-31T04:18:06.088Z,6.66
2024-01-31T04:18:57.675Z,6.65
2024-01-31T04:19:50.511Z,6.62
2024-01-31T04:20:42.291Z,6.62
2024-01-31T04:21:33.740Z,6.60
2024-01-31T04:22:25.283Z,6.60
2024-01-31T04:23:17.258Z,6.59
2024-01-31T04:24:08.701Z,6.60
2024-01-31T04:25:00.207Z,6.64
2024-01-31T04:25:51.763Z,6.65
2024-01-31T04:26:46.412Z,6.62
2024-01-31T04:27:37.838Z,6.59
2024-01-31T04:28:29.285Z,6.56
2024-01-31T04:29:21.163Z,6.54
2024-01-31T04:30:12.900Z,6.57
2024-01-31T04:31:04.638Z,6.52
2024-01-31T04:31:57.448Z,6.53
2024-01-31T04:32:49.042Z,6.52
2024-01-31T04:33:41.084Z,6.44
2024-01-31T04:34:32.656Z,6.41
2024-01-31T04:35:24.224Z,6.44
2024-01-31T04:36:15.615Z,6.44
2024-01-31T04:37:07.386Z,6.49
2024-01-31T04:37:58.831Z,6.47
2024-01-31T04:38:50.344Z,6.47
2024-01-31T04:39:41.750Z,6.50
2024-01-31T04:40:33.149Z,6.50
2024-01-31T04:41:24.598Z,6.46
2024-01-31T04:42:15.984Z,6.46
2024-01-31T04:43:07.418Z,6.48
2024-01-31T04:43:58.921Z,6.50
2024-01-31T04:44:50.334Z,6.51
2024-01-31T04:45:41.719Z,6.51
2024-01-31T04:46:33.141Z,6.52
2024-01-31T04:47:26.833Z,6.52
2024-01-31T04:48:18.517Z,6.53
2024-01-31T04:49:10.226Z,6.50
2024-01-31T04:50:01.941Z,6.52
2024-01-31T04:50:53.526Z,6.48
2024-01-31T04:51:44.974Z,6.50
2024-01-31T04:52:37.330Z,6.55
2024-01-31T04:53:28.817Z,6.53
2024-01-31T04:54:20.463Z,6.52
2024-01-31T04:55:12.237Z,6.54
2024-01-31T04:56:08.053Z,6.53
2024-01-31T04:56:59.540Z,6.54
2024-01-31T04:57:50.982Z,6.55
2024-01-31T04:58:42.500Z,6.55
2024-01-31T04:59:40.966Z,6.55
2024-01-31T05:00:32.479Z,6.56
2024-01-31T05:01:23.993Z,6.53
2024-01-31T05:02:15.481Z,6.54
2024-01-31T05:03:06.954Z,6.56
2024-01-31T05:03:58.868Z,6.57
2024-01-31T05:04:50.501Z,6.53
2024-01-31T05:05:42.100Z,6.54
2024-01-31T05:06:33.721Z,6.50
2024-01-31T05:07:25.202Z,6.53
2024-01-31T05:08:16.686Z,6.54
2024-01-31T05:09:09.863Z,6.53
2024-01-31T05:10:01.345Z,6.50
2024-01-31T05:10:52.806Z,6.53
2024-01-31T05:11:44.243Z,6.48
2024-01-31T05:12:35.758Z,6.50
2024-01-31T05:13:27.221Z,6.51
2024-01-31T05:14:19.227Z,6.50
2024-01-31T05:15:10.797Z,6.49
2024-01-31T05:16:02.331Z,6.50
2024-01-31T05:16:53.816Z,6.50
2024-01-31T05:17:45.223Z,6.51
2024-01-31T05:18:37.227Z,6.40
2024-01-31T05:19:31.015Z,6.43
2024-01-31T05:20:22.912Z,6.43
2024-01-31T05:21:14.351Z,6.43
2024-01-31T05:22:05.737Z,6.36
2024-01-31T05:22:57.565Z,6.30
2024-01-31T05:23:49.034Z,6.30
2024-01-31T05:24:40.852Z,6.33
2024-01-31T05:25:32.306Z,6.33
2024-01-31T05:26:23.794Z,6.36
2024-01-31T05:27:15.478Z,6.42
2024-01-31T05:28:06.957Z,6.40
2024-01-31T05:28:58.347Z,6.46
2024-01-31T05:29:49.733Z,6.41
2024-01-31T05:30:41.172Z,6.33
2024-01-31T05:31:33.212Z,6.29
2024-01-31T05:32:24.734Z,6.20
2024-01-31T05:33:16.264Z,6.19
2024-01-31T05:34:08.306Z,6.25
2024-01-31T05:34:59.944Z,6.22
2024-01-31T05:35:51.445Z,6.23
2024-01-31T05:36:42.856Z,6.23
2024-01-31T05:37:35.336Z,6.23
2024-01-31T05:38:27.878Z,6.20
2024-01-31T05:39:19.280Z,6.24
2024-01-31T05:40:12.909Z,6.28
2024-01-31T05:41:04.575Z,6.31
2024-01-31T05:41:56.104Z,6.33
2024-01-31T05:42:49.247Z,6.33
2024-01-31T05:43:41.428Z,6.32
2024-01-31T05:44:33.058Z,6.31
2024-01-31T05:45:25.152Z,6.30
2024-01-31T05:46:18.331Z,6.34
2024-01-31T05:47:09.809Z,6.35
2024-01-31T05:48:03.035Z,6.38
2024-01-31T05:48:54.684Z,6.36
2024-01-31T05:49:46.564Z,6.36
2024-01-31T05:50:40.889Z,6.36
2024-01-31T05:51:33.308Z,6.40
2024-01-31T05:52:24.928Z,6.40
2024-01-31T05:53:16.411Z,6.41
2024-01-31T05:54:07.858Z,6.43
2024-01-31T05:54:59.379Z,6.42
2024-01-31T05:55:50.913Z,6.45
2024-01-31T05:56:42.488Z,6.43
2024-01-31T05:57:34.720Z,6.43
2024-01-31T05:58:26.240Z,6.41
2024-01-31T05:59:17.836Z,6.40
2024-01-31T06:00:14.224Z,6.41
2024-01-31T06:01:06.810Z,6.43
2024-01-31T06:01:58.627Z,6.41
2024-01-31T06:02:53.546Z,6.45
2024-01-31T06:03:48.310Z,6.43
2024-01-31T06:04:41.565Z,6.41
2024-01-31T06:05:33.507Z,6.37
2024-01-31T06:06:24.980Z,6.36
2024-01-31T06:07:16.470Z,6.36
2024-01-31T06:08:08.661Z,6.39
2024-01-31T06:09:00.154Z,6.36
2024-01-31T06:09:51.531Z,6.37
2024-01-31T06:10:43.001Z,6.37
2024-01-31T06:11:34.458Z,6.35
2024-01-31T06:12:26.005Z,6.39
2024-01-31T06:13:17.451Z,6.40
2024-01-31T06:14:09.148Z,6.38
2024-01-31T06:15:00.569Z,6.39
2024-01-31T06:15:51.999Z,6.39
2024-01-31T06:16:43.467Z,6.36
2024-01-31T06:17:35.107Z,6.35
2024-01-31T06:18:26.599Z,6.38
2024-01-31T06:19:18.161Z,6.36
2024-01-31T06:20:10.769Z,6.33
2024-01-31T06:21:04.049Z,6.34
2024-01-31T06:21:55.679Z,6.39
2024-01-31T06:22:47.172Z,6.31
2024-01-31T06:23:38.945Z,6.29
2024-01-31T06:24:30.324Z,6.24
2024-01-31T06:25:22.008Z,6.21
2024-01-31T06:26:13.460Z,6.25
2024-01-31T06:27:05.035Z,6.27
2024-01-31T06:27:56.521Z,6.28
2024-01-31T06:28:49.591Z,6.26
2024-01-31T06:29:41.153Z,6.32
2024-01-31T06:30:41.377Z,6.33
2024-01-31T06:31:36.943Z,6.30
2024-01-31T06:32:33.296Z,6.32
2024-01-31T06:33:28.772Z,6.29
2024-01-31T06:34:20.610Z,6.26
2024-01-31T06:35:12.211Z,6.22
2024-01-31T06:36:04.085Z,6.22
2024-01-31T06:36:58.375Z,6.20
2024-01-31T06:37:51.104Z,6.19
2024-01-31T06:38:42.478Z,6.23
2024-01-31T06:39:33.908Z,6.27
2024-01-31T06:40:25.421Z,6.25
2024-01-31T06:41:17.691Z,6.24
2024-01-31T06:42:09.076Z,6.25
2024-01-31T06:43:00.876Z,6.19
2024-01-31T06:43:52.445Z,6.25
2024-01-31T06:44:43.850Z,6.27
2024-01-31T06:45:35.298Z,6.29
2024-01-31T06:46:26.738Z,6.29
2024-01-31T06:47:18.195Z,6.23
2024-01-31T06:48:10.915Z,6.25
2024-01-31T06:49:02.702Z,6.27
2024-01-31T06:49:54.201Z,6.22
2024-01-31T06:50:47.918Z,6.27
2024-01-31T06:51:39.578Z,6.30
2024-01-31T06:52:31.014Z,6.29
2024-01-31T06:53:22.567Z,6.25
2024-01-31T06:54:15.303Z,6.18
2024-01-31T06:55:06.945Z,6.18
2024-01-31T06:56:00.719Z,6.15
2024-01-31T06:56:52.145Z,6.15
2024-01-31T06:57:43.736Z,6.19
2024-01-31T06:58:35.365Z,6.19
2024-01-31T06:59:26.824Z,6.19
2024-01-31T07:00:18.554Z,6.22
2024-01-31T07:01:10.112Z,6.23
2024-01-31T07:02:01.793Z,6.19
2024-01-31T07:02:54.189Z,6.18
2024-01-31T07:03:46.553Z,6.16
2024-01-31T07:04:38.974Z,6.16
2024-01-31T07:05:30.536Z,6.18
2024-01-31T07:06:22.148Z,6.16
2024-01-31T07:07:13.823Z,6.10
2024-01-31T07:08:05.706Z,6.09
2024-01-31T07:08:57.178Z,6.13
2024-01-31T07:09:48.580Z,6.14
2024-01-31T07:10:40.026Z,6.15
2024-01-31T07:11:31.588Z,6.16
2024-01-31T07:12:23.012Z,6.17
2024-01-31T07:13:14.440Z,6.20
2024-01-31T07:14:05.875Z,6.22
2024-01-31T07:14:57.426Z,6.21
2024-01-31T07:15:49.024Z,6.22
2024-01-31T07:16:40.773Z,6.21
2024-01-31T07:17:33.004Z,6.22
2024-01-31T07:18:24.586Z,6.20
2024-01-31T07:19:16.159Z,6.20
2024-01-31T07:20:09.179Z,6.23
2024-01-31T07:21:00.688Z,6.18
2024-01-31T07:21:52.145Z,6.17
2024-01-31T07:22:43.946Z,6.14
2024-01-31T07:23:36.301Z,6.22
2024-01-31T07:24:30.093Z,6.21
2024-01-31T07:25:21.986Z,6.27
2024-01-31T07:26:24.978Z,6.27
2024-01-31T07:27:16.388Z,6.25
2024-01-31T07:28:08.674Z,6.28
2024-01-31T07:29:00.802Z,6.28
2024-01-31T07:29:52.247Z,6.29
2024-01-31T07:30:43.655Z,6.31
2024-01-31T07:31:35.495Z,6.31
2024-01-31T07:32:26.902Z,6.27
2024-01-31T07:33:19.028Z,6.17
2024-01-31T07:34:10.587Z,6.14
2024-01-31T07:35:02.223Z,6.16
2024-01-31T07:35:53.870Z,6.18
2024-01-31T07:36:45.308Z,6.21
2024-01-31T07:37:40.129Z,6.25
2024-01-31T07:38:31.636Z,6.27
2024-01-31T07:39:23.007Z,6.25
2024-01-31T07:40:14.759Z,6.23
2024-01-31T07:41:07.141Z,6.16
2024-01-31T07:41:58.553Z,6.17
2024-01-31T07:42:50.047Z,6.20
2024-01-31T07:43:43.811Z,6.24
2024-01-31T07:44:35.689Z,6.25
2024-01-31T07:45:28.171Z,6.25
2024-01-31T07:46:19.948Z,6.32
2024-01-31T07:47:11.492Z,6.29
2024-01-31T07:48:03.072Z,6.27
2024-01-31T07:48:54.632Z,6.30
2024-01-31T07:49:46.656Z,6.28
2024-01-31T07:50:38.360Z,6.27
2024-01-31T07:51:29.949Z,6.24
2024-01-31T07:52:21.417Z,6.21
2024-01-31T07:53:12.848Z,6.22
2024-01-31T07:54:04.388Z,6.21
2024-01-31T07:54:56.271Z,6.25
2024-01-31T07:55:47.883Z,6.28
2024-01-31T07:56:39.371Z,6.31
2024-01-31T07:57:30.900Z,6.35
2024-01-31T07:58:22.599Z,6.36
2024-01-31T07:59:14.062Z,6.36
2024-01-31T08:00:07.574Z,6.34
2024-01-31T08:01:00.430Z,6.36
2024-01-31T08:01:52.726Z,6.28
2024-01-31T08:02:44.194Z,6.26
2024-01-31T08:03:39.966Z,6.28
2024-01-31T08:04:31.522Z,6.29
2024-01-31T08:05:22.948Z,6.34
2024-01-31T08:06:14.501Z,6.35
2024-01-31T08:07:05.929Z,6.39
2024-01-31T08:07:57.680Z,6.41
2024-01-31T08:08:49.208Z,6.43
2024-01-31T08:09:40.965Z,6.38
2024-01-31T08:10:32.350Z,6.36
2024-01-31T08:11:23.873Z,6.35
2024-01-31T08:12:15.318Z,6.38
2024-01-31T08:13:06.818Z,6.41
2024-01-31T08:13:58.267Z,6.45
2024-01-31T08:14:50.003Z,6.45
2024-01-31T08:15:41.494Z,6.46
2024-01-31T08:16:32.971Z,6.43
2024-01-31T08:17:24.458Z,6.45
2024-01-31T08:18:15.930Z,6.44
2024-01-31T08:19:07.683Z,6.49
2024-01-31T08:19:59.335Z,6.47
2024-01-31T08:20:50.756Z,6.51
2024-01-31T08:21:42.782Z,6.53
2024-01-31T08:22:36.861Z,6.52
2024-01-31T08:23:30.459Z,6.51
2024-01-31T08:24:22.115Z,6.49
2024-01-31T08:25:13.578Z,6.51
2024-01-31T08:26:06.468Z,6.47
2024-01-31T08:26:57.928Z,6.47
2024-01-31T08:27:50.414Z,6.46
2024-01-31T08:28:41.922Z,6.50
2024-01-31T08:29:33.430Z,6.53
2024-01-31T08:30:24.893Z,6.53
2024-01-31T08:31:16.458Z,6.50
2024-01-31T08:32:08.024Z,6.51
2024-01-31T08:33:00.831Z,6.52
2024-01-31T08:33:52.428Z,6.50
2024-01-31T08:34:44.028Z,6.49
2024-01-31T08:35:35.641Z,6.52
2024-01-31T08:36:27.160Z,6.57
2024-01-31T08:37:19.169Z,6.61
2024-01-31T08:38:10.690Z,6.59
2024-01-31T08:39:02.524Z,6.56
2024-01-31T08:39:53.956Z,6.59
2024-01-31T08:40:45.398Z,6.64
2024-01-31T08:41:37.277Z,6.63
2024-01-31T08:42:30.052Z,6.67
2024-01-31T08:43:21.639Z,6.70
2024-01-31T08:44:13.222Z,6.72
2024-01-31T08:45:05.285Z,6.66
2024-01-31T08:45:56.760Z,6.67
2024-01-31T08:46:58.716Z,6.72
2024-01-31T08:47:59.955Z,6.72
2024-01-31T08:48:51.421Z,6.66
2024-01-31T08:49:42.958Z,6.66
2024-01-31T08:50:34.657Z,6.68
2024-01-31T08:51:26.251Z,6.72
2024-01-31T08:52:17.953Z,6.73
2024-01-31T08:53:09.557Z,6.73
2024-01-31T08:54:01.148Z,6.76
2024-01-31T08:54:52.718Z,6.72
2024-01-31T08:55:52.200Z,6.65
2024-01-31T08:56:50.034Z,6.68
2024-01-31T08:57:41.563Z,6.61
2024-01-31T08:58:33.022Z,6.60
2024-01-31T08:59:24.656Z,6.62
2024-01-31T09:00:16.798Z,6.62
2024-01-31T09:01:08.273Z,6.60
2024-01-31T09:01:59.859Z,6.63
2024-01-31T09:02:51.422Z,6.67
2024-01-31T09:03:42.832Z,6.63
2024-01-31T09:04:34.845Z,6.65
2024-01-31T09:05:26.361Z,6.63
2024-01-31T09:06:17.995Z,6.65
2024-01-31T09:07:09.662Z,6.67
2024-01-31T09:08:01.286Z,6.69
2024-01-31T09:08:52.761Z,6.73
2024-01-31T09:09:44.145Z,6.77
2024-01-31T09:10:35.697Z,6.83
2024-01-31T09:11:27.366Z,6.83
2024-01-31T09:12:18.841Z,6.83
2024-01-31T09:13:10.789Z,6.83
2024-01-31T09:14:02.374Z,6.82
2024-01-31T09:14:53.880Z,6.82
2024-01-31T09:15:45.334Z,6.78
2024-01-31T09:16:36.887Z,6.78
2024-01-31T09:17:28.503Z,6.78
2024-01-31T09:18:19.997Z,6.79
2024-01-31T09:19:11.768Z,6.75
2024-01-31T09:20:03.617Z,6.71
2024-01-31T09:20:55.412Z,6.71
2024-01-31T09:21:46.848Z,6.67
2024-01-31T09:22:40.111Z,6.65
2024-01-31T09:23:31.875Z,6.61
2024-01-31T09:24:23.335Z,6.61
2024-01-31T09:25:16.281Z,6.66
2024-01-31T09:26:09.666Z,6.67
2024-01-31T09:27:01.963Z,6.65
2024-01-31T09:27:53.452Z,6.67
2024-01-31T09:28:45.092Z,6.67
2024-01-31T09:29:36.707Z,6.64
2024-01-31T09:30:28.212Z,6.67
2024-01-31T09:31:24.662Z,6.71
2024-01-31T09:32:16.379Z,6.73
2024-01-31T09:33:07.791Z,6.69
2024-01-31T09:33:59.438Z,6.71
2024-01-31T09:34:52.889Z,6.72
2024-01-31T09:35:46.879Z,6.75
2024-01-31T09:36:38.333Z,6.75
2024-01-31T09:37:32.042Z,6.75
2024-01-31T09:38:26.608Z,6.80
2024-01-31T09:39:18.145Z,6.81
2024-01-31T09:40:11.489Z,6.86
2024-01-31T09:41:03.528Z,6.81
2024-01-31T09:41:55.611Z,6.79
2024-01-31T09:42:47.536Z,6.76
2024-01-31T09:43:39.293Z,6.79
2024-01-31T09:44:31.751Z,6.86
2024-01-31T09:45:24.092Z,6.83
2024-01-31T09:46:18.627Z,6.84
2024-01-31T09:47:12.203Z,6.85
2024-01-31T09:48:03.951Z,6.86
2024-01-31T09:48:55.684Z,6.90
2024-01-31T09:49:47.335Z,6.92
2024-01-31T09:50:38.948Z,6.88
2024-01-31T09:51:31.192Z,6.85
2024-01-31T09:52:28.421Z,6.82
2024-01-31T09:53:20.405Z,6.83
2024-01-31T09:54:11.884Z,6.86
2024-01-31T09:55:05.790Z,6.90
2024-01-31T09:55:57.688Z,6.94
2024-01-31T09:56:49.234Z,6.93
2024-01-31T09:57:43.177Z,6.93
2024-01-31T09:58:34.690Z,6.92
2024-01-31T09:59:26.351Z,6.95
2024-01-31T10:00:18.685Z,6.92
2024-01-31T10:01:17.853Z,6.92
2024-01-31T10:02:17.269Z,6.95
2024-01-31T10:03:10.704Z,6.96
2024-01-31T10:04:02.490Z,6.92
2024-01-31T10:04:54.146Z,6.91
2024-01-31T10:05:45.961Z,6.95
2024-01-31T10:06:37.686Z,6.93
2024-01-31T10:07:31.613Z,6.92
2024-01-31T10:08:23.177Z,6.92
2024-01-31T10:09:14.674Z,6.91
2024-01-31T10:10:07.213Z,6.91
2024-01-31T10:10:58.961Z,6.94
2024-01-31T10:11:50.545Z,7.00
2024-01-31T10:12:43.014Z,7.01
2024-01-31T10:13:34.688Z,7.00
2024-01-31T10:14:26.165Z,7.01
2024-01-31T10:15:17.724Z,7.05
2024-01-31T10:16:09.233Z,7.09
2024-01-31T10:17:00.893Z,7.10
2024-01-31T10:17:54.242Z,7.12
2024-01-31T10:18:45.944Z,7.17
2024-01-31T10:19:37.469Z,7.19
2024-01-31T10:20:29.160Z,7.12
2024-01-31T10:21:21.678Z,7.15
2024-01-31T10:22:13.160Z,7.12
2024-01-31T10:23:04.633Z,7.17
2024-01-31T10:24:00.789Z,7.22
2024-01-31T10:24:52.810Z,7.26
2024-01-31T10:25:44.452Z,7.30
2024-01-31T10:26:36.849Z,7.35
2024-01-31T10:27:28.330Z,7.35
2024-01-31T10:28:21.694Z,7.38
2024-01-31T10:29:13.546Z,7.41
2024-01-31T10:30:08.794Z,7.46
2024-01-31T10:31:00.509Z,7.47
2024-01-31T10:31:54.068Z,7.48
2024-01-31T10:32:46.975Z,7.53
2024-01-31T10:33:40.144Z,7.55
2024-01-31T10:34:44.322Z,7.57
2024-01-31T10:36:24.242Z,7.47
2024-01-31T10:37:57.517Z,7.53
2024-01-31T10:38:51.475Z,7.55
2024-01-31T10:39:46.868Z,7.58
2024-01-31T10:40:41.651Z,7.65
2024-01-31T10:41:35.626Z,7.69
2024-01-31T10:42:27.515Z,7.63
2024-01-31T10:43:19.935Z,7.66
2024-01-31T10:44:15.733Z,7.69
2024-01-31T10:45:08.346Z,7.65
2024-01-31T10:45:59.997Z,7.62
2024-01-31T10:46:51.588Z,7.61
2024-01-31T10:47:45.741Z,7.64
2024-01-31T10:48:39.258Z,7.66
2024-01-31T10:49:31.014Z,7.68
2024-01-31T10:50:22.848Z,7.67
2024-01-31T10:51:19.043Z,7.67
2024-01-31T10:52:18.359Z,7.74
2024-01-31T10:53:12.431Z,7.80
2024-01-31T10:54:07.490Z,7.76
2024-01-31T10:55:04.197Z,7.77
2024-01-31T10:55:59.789Z,7.79
2024-01-31T10:56:53.041Z,7.80
2024-01-31T10:57:46.239Z,7.82
2024-01-31T10:58:38.137Z,7.82
2024-01-31T10:59:38.472Z,7.82
2024-01-31T11:00:30.385Z,7.76
2024-01-31T11:01:22.256Z,7.81
2024-01-31T11:02:22.800Z,7.83
2024-01-31T11:03:16.740Z,7.83
2024-01-31T11:04:14.756Z,7.86
2024-01-31T11:05:06.490Z,7.89
2024-01-31T11:05:58.059Z,7.88
2024-01-31T11:06:53.448Z,7.91
2024-01-31T11:07:48.774Z,7.99
2024-01-31T11:08:42.296Z,8.01
2024-01-31T11:09:33.852Z,8.01
2024-01-31T11:10:27.697Z,8.06
2024-01-31T11:11:19.950Z,8.11
2024-01-31T11:12:14.398Z,8.16
2024-01-31T11:13:06.203Z,8.14
2024-01-31T11:14:13.078Z,8.18
2024-01-31T11:15:06.269Z,8.21
2024-01-31T11:15:57.691Z,8.28
2024-01-31T11:16:49.242Z,8.24
2024-01-31T11:17:46.068Z,8.26
2024-01-31T11:18:38.044Z,8.31
2024-01-31T11:19:30.941Z,8.27
2024-01-31T11:20:23.627Z,8.27
2024-01-31T11:21:15.716Z,8.26
2024-01-31T11:22:08.642Z,8.30
2024-01-31T11:23:01.643Z,8.31
2024-01-31T11:23:53.211Z,8.34
2024-01-31T11:24:53.186Z,8.29
2024-01-31T11:25:46.218Z,8.27
2024-01-31T11:26:40.137Z,8.21
2024-01-31T11:27:32.483Z,8.22
2024-01-31T11:28:26.884Z,8.26
2024-01-31T11:29:18.881Z,8.31
2024-01-31T11:30:11.897Z,8.35
2024-01-31T11:31:03.767Z,8.33
2024-01-31T11:31:55.194Z,8.38
2024-01-31T11:32:46.859Z,8.47
2024-01-31T11:33:38.730Z,8.38
2024-01-31T11:34:30.551Z,8.25
2024-01-31T11:35:26.000Z,8.17
2024-01-31T11:36:17.524Z,8.26